HAZ8801 ZSHC-ZPPP
Flight info
| Callsign | HAZ8801 |
|---|---|
| Flight time | 2h 33m |
| Altitude | 32100 |
| Route | ABVIL H24 ISNIR H161 P366 H165 P490 A581 XISLI |
| Aircraft | A320/M-SDE3FGHIRWY/LB1 |
Departure
| Time | 2026-05-04 09:17 |
|---|---|
| Airport | Hangzhou Xiaoshan International Airport (ZSHC) |
Arrival
| Time | 2026-05-04 11:51 |
|---|---|
| Airport | Kunming Changshui International Airport (ZPPP) |
| Time | Latitude | Longitude | Altitude | Speed | Heading |
|---|---|---|---|---|---|
| 2026-05-04 09:01 | 30.24121 | 120.42803 | 32 ft | 0 kts | 234° |
| 2026-05-04 09:09 | 30.24131 | 120.42819 | 32 ft | 3 kts | 234° |
| 2026-05-04 09:10 | 30.24142 | 120.42838 | 32 ft | 3 kts | 245° |
| 2026-05-04 09:10 | 30.24146 | 120.42858 | 30 ft | 3 kts | 296° |
| 2026-05-04 09:10 | 30.24133 | 120.42875 | 30 ft | 3 kts | 328° |
| 2026-05-04 09:10 | 30.24119 | 120.42885 | 31 ft | 0 kts | 333° |
| 2026-05-04 09:14 | 30.24614 | 120.43283 | 32 ft | 29 kts | 63° |
| 2026-05-04 09:14 | 30.24696 | 120.43447 | 32 ft | 13 kts | 27° |
| 2026-05-04 09:14 | 30.24784 | 120.43458 | 32 ft | 14 kts | 41° |
| 2026-05-04 09:14 | 30.24844 | 120.43578 | 32 ft | 21 kts | 63° |
| 2026-05-04 09:15 | 30.24912 | 120.43732 | 32 ft | 22 kts | 63° |
| 2026-05-04 09:15 | 30.24995 | 120.43851 | 32 ft | 17 kts | 4° |
| 2026-05-04 09:15 | 30.25097 | 120.43798 | 31 ft | 14 kts | 334° |
| 2026-05-04 09:15 | 30.25103 | 120.43729 | 30 ft | 0 kts | 242° |
| 2026-05-04 09:17 | 30.22053 | 120.36843 | 2307 ft | 195 kts | 240° |
| 2026-05-04 09:18 | 30.21396 | 120.35378 | 2547 ft | 216 kts | 240° |
| 2026-05-04 09:18 | 30.20664 | 120.33740 | 2872 ft | 241 kts | 241° |
| 2026-05-04 09:18 | 30.19866 | 120.31948 | 3414 ft | 257 kts | 242° |
| 2026-05-04 09:18 | 30.19044 | 120.30093 | 4250 ft | 262 kts | 242° |
| 2026-05-04 09:19 | 30.18202 | 120.28198 | 5016 ft | 268 kts | 243° |
| 2026-05-04 09:19 | 30.17336 | 120.26256 | 5770 ft | 275 kts | 244° |
| 2026-05-04 09:19 | 30.16451 | 120.24271 | 6558 ft | 280 kts | 244° |
| 2026-05-04 09:19 | 30.15556 | 120.22262 | 7356 ft | 282 kts | 245° |
| 2026-05-04 09:20 | 30.14654 | 120.20242 | 8194 ft | 284 kts | 245° |
| 2026-05-04 09:20 | 30.13645 | 120.18274 | 9045 ft | 287 kts | 237° |
| 2026-05-04 09:20 | 30.12475 | 120.16400 | 9883 ft | 288 kts | 237° |
| 2026-05-04 09:20 | 30.11296 | 120.14513 | 10635 ft | 291 kts | 237° |
| 2026-05-04 09:21 | 30.10086 | 120.12569 | 11014 ft | 309 kts | 237° |
| 2026-05-04 09:21 | 30.08787 | 120.10479 | 11192 ft | 332 kts | 237° |
| 2026-05-04 09:21 | 30.07393 | 120.08240 | 11328 ft | 354 kts | 237° |
| 2026-05-04 09:21 | 30.05916 | 120.05876 | 11603 ft | 369 kts | 236° |
| 2026-05-04 09:22 | 30.04397 | 120.03451 | 12188 ft | 375 kts | 237° |
| 2026-05-04 09:22 | 30.02857 | 120.00998 | 12817 ft | 379 kts | 237° |
| 2026-05-04 09:22 | 30.01412 | 119.98443 | 13425 ft | 382 kts | 242° |
| 2026-05-04 09:22 | 30.00058 | 119.95777 | 13957 ft | 388 kts | 243° |
| 2026-05-04 09:23 | 29.98715 | 119.93057 | 14493 ft | 391 kts | 243° |
| 2026-05-04 09:23 | 29.97377 | 119.90321 | 15119 ft | 392 kts | 243° |
| 2026-05-04 09:23 | 29.96036 | 119.87592 | 15708 ft | 391 kts | 243° |
| 2026-05-04 09:23 | 29.94690 | 119.84864 | 16267 ft | 391 kts | 243° |
| 2026-05-04 09:25 | 29.85155 | 119.65845 | 20017 ft | 396 kts | 238° |
| 2026-05-04 09:25 | 29.83572 | 119.63242 | 20473 ft | 397 kts | 238° |
| 2026-05-04 09:26 | 29.81986 | 119.60643 | 20987 ft | 397 kts | 238° |
| 2026-05-04 09:26 | 29.80397 | 119.58041 | 21436 ft | 398 kts | 238° |
| 2026-05-04 09:26 | 29.78805 | 119.55432 | 21849 ft | 399 kts | 238° |
| 2026-05-04 09:26 | 29.77205 | 119.52813 | 22243 ft | 401 kts | 238° |
| 2026-05-04 09:27 | 29.75595 | 119.50177 | 22590 ft | 403 kts | 238° |
| 2026-05-04 09:27 | 29.73977 | 119.47526 | 22915 ft | 406 kts | 238° |
| 2026-05-04 09:27 | 29.72353 | 119.44868 | 23346 ft | 407 kts | 238° |
| 2026-05-04 09:27 | 29.70724 | 119.42202 | 23733 ft | 408 kts | 238° |
| 2026-05-04 09:28 | 29.69088 | 119.39531 | 24067 ft | 409 kts | 237° |
| 2026-05-04 09:28 | 29.67450 | 119.36857 | 24377 ft | 409 kts | 237° |
| 2026-05-04 09:28 | 29.65806 | 119.34175 | 24692 ft | 410 kts | 237° |
| 2026-05-04 09:28 | 29.64258 | 119.31429 | 24997 ft | 409 kts | 243° |
| 2026-05-04 09:29 | 29.63099 | 119.28451 | 25300 ft | 408 kts | 249° |
| 2026-05-04 09:29 | 29.62049 | 119.25414 | 25593 ft | 409 kts | 249° |
| 2026-05-04 09:29 | 29.60992 | 119.22373 | 25912 ft | 410 kts | 249° |
| 2026-05-04 09:29 | 29.59932 | 119.19330 | 26232 ft | 411 kts | 249° |
| 2026-05-04 09:30 | 29.58870 | 119.16279 | 26508 ft | 412 kts | 249° |
| 2026-05-04 09:30 | 29.57805 | 119.13226 | 26784 ft | 413 kts | 249° |
| 2026-05-04 09:30 | 29.56737 | 119.10172 | 27153 ft | 411 kts | 249° |
| 2026-05-04 09:30 | 29.55673 | 119.07139 | 27617 ft | 407 kts | 249° |
| 2026-05-04 09:31 | 29.54615 | 119.04133 | 28066 ft | 404 kts | 249° |
| 2026-05-04 09:31 | 29.53568 | 119.01150 | 28521 ft | 401 kts | 249° |
| 2026-05-04 09:31 | 29.52530 | 118.98187 | 28989 ft | 398 kts | 249° |
| 2026-05-04 09:31 | 29.51500 | 118.95247 | 29458 ft | 395 kts | 249° |
| 2026-05-04 09:32 | 29.50494 | 118.92327 | 29903 ft | 392 kts | 251° |
| 2026-05-04 09:32 | 29.49827 | 118.89303 | 30220 ft | 392 kts | 260° |
| 2026-05-04 09:34 | 29.47427 | 118.67979 | 32200 ft | 382 kts | 261° |
| 2026-05-04 09:34 | 29.47086 | 118.64954 | 32206 ft | 382 kts | 261° |
| 2026-05-04 09:34 | 29.46400 | 118.58907 | 32194 ft | 383 kts | 261° |
| 2026-05-04 09:35 | 29.45696 | 118.52768 | 32192 ft | 391 kts | 261° |
| 2026-05-04 09:35 | 29.44207 | 118.46772 | 32193 ft | 393 kts | 249° |
| 2026-05-04 09:37 | 29.35933 | 118.23484 | 32168 ft | 395 kts | 249° |
| 2026-05-04 09:38 | 29.33855 | 118.17664 | 32173 ft | 395 kts | 249° |
| 2026-05-04 09:38 | 29.31773 | 118.11845 | 32175 ft | 395 kts | 249° |
| 2026-05-04 09:39 | 29.29685 | 118.06030 | 32197 ft | 395 kts | 249° |
| 2026-05-04 09:39 | 29.27596 | 118.00205 | 32197 ft | 395 kts | 249° |
| 2026-05-04 09:40 | 29.25509 | 117.94388 | 32199 ft | 395 kts | 249° |
| 2026-05-04 09:40 | 29.23418 | 117.88582 | 32158 ft | 394 kts | 249° |
| 2026-05-04 09:42 | 29.15025 | 117.65350 | 32169 ft | 395 kts | 249° |
| 2026-05-04 09:43 | 29.12930 | 117.59583 | 32170 ft | 395 kts | 249° |
| 2026-05-04 09:43 | 29.10828 | 117.53776 | 32170 ft | 395 kts | 249° |
| 2026-05-04 09:44 | 29.08717 | 117.47969 | 32176 ft | 395 kts | 249° |
| 2026-05-04 09:46 | 29.00430 | 117.24800 | 32175 ft | 392 kts | 250° |
| 2026-05-04 09:46 | 28.98386 | 117.19022 | 32174 ft | 392 kts | 250° |
| 2026-05-04 09:47 | 28.96353 | 117.13246 | 32179 ft | 392 kts | 250° |
| 2026-05-04 09:49 | 28.88166 | 116.90197 | 32174 ft | 391 kts | 250° |
| 2026-05-04 09:51 | 28.81007 | 116.70146 | 32163 ft | 390 kts | 250° |
| 2026-05-04 09:51 | 28.79297 | 116.65396 | 32164 ft | 390 kts | 250° |
| 2026-05-04 09:52 | 28.76912 | 116.58758 | 32170 ft | 389 kts | 250° |
| 2026-05-04 09:52 | 28.74860 | 116.53044 | 32137 ft | 389 kts | 250° |
| 2026-05-04 09:53 | 28.73141 | 116.48260 | 32151 ft | 389 kts | 250° |
| 2026-05-04 09:53 | 28.71100 | 116.42593 | 32160 ft | 389 kts | 250° |
| 2026-05-04 09:54 | 28.69211 | 116.36831 | 32162 ft | 388 kts | 255° |
| 2026-05-04 09:54 | 28.67756 | 116.30923 | 32157 ft | 388 kts | 256° |
| 2026-05-04 09:55 | 28.66341 | 116.25002 | 32177 ft | 388 kts | 256° |
| 2026-05-04 09:55 | 28.64916 | 116.19084 | 32174 ft | 388 kts | 256° |
| 2026-05-04 09:56 | 28.63478 | 116.13167 | 32174 ft | 388 kts | 256° |
| 2026-05-04 09:56 | 28.62040 | 116.07255 | 32170 ft | 388 kts | 256° |
| 2026-05-04 09:57 | 28.60598 | 116.01344 | 32172 ft | 388 kts | 256° |
| 2026-05-04 09:57 | 28.59150 | 115.95435 | 32170 ft | 388 kts | 255° |
| 2026-05-04 09:58 | 28.57695 | 115.89527 | 32168 ft | 388 kts | 256° |
| 2026-05-04 09:58 | 28.56242 | 115.83618 | 32162 ft | 388 kts | 256° |
| 2026-05-04 10:00 | 28.50406 | 115.59984 | 32173 ft | 388 kts | 256° |
| 2026-05-04 10:04 | 28.42303 | 115.18169 | 32168 ft | 387 kts | 261° |
| 2026-05-04 10:04 | 28.41445 | 115.12130 | 32170 ft | 387 kts | 261° |
| 2026-05-04 10:05 | 28.40591 | 115.06134 | 32165 ft | 387 kts | 261° |
| 2026-05-04 10:05 | 28.39730 | 115.00098 | 32178 ft | 387 kts | 261° |
| 2026-05-04 10:06 | 28.38867 | 114.94064 | 32176 ft | 387 kts | 261° |
| 2026-05-04 10:06 | 28.37997 | 114.88032 | 32173 ft | 387 kts | 261° |
| 2026-05-04 10:08 | 28.34937 | 114.66934 | 32168 ft | 387 kts | 261° |
| 2026-05-04 10:08 | 28.34062 | 114.60903 | 32133 ft | 387 kts | 261° |
| 2026-05-04 10:09 | 28.33177 | 114.54875 | 32142 ft | 387 kts | 261° |
| 2026-05-04 10:09 | 28.32296 | 114.48887 | 32152 ft | 387 kts | 261° |
| 2026-05-04 10:10 | 28.31407 | 114.42857 | 32153 ft | 387 kts | 261° |
| 2026-05-04 10:10 | 28.30516 | 114.36825 | 32167 ft | 388 kts | 261° |
| 2026-05-04 10:11 | 28.29761 | 114.30763 | 32166 ft | 388 kts | 263° |
| 2026-05-04 10:11 | 28.29101 | 114.24687 | 32169 ft | 388 kts | 263° |
| 2026-05-04 10:12 | 28.28431 | 114.18619 | 32171 ft | 387 kts | 262° |
| 2026-05-04 10:12 | 28.27727 | 114.12566 | 32169 ft | 387 kts | 262° |
| 2026-05-04 10:13 | 28.27011 | 114.06517 | 32187 ft | 387 kts | 262° |
| 2026-05-04 10:13 | 28.26297 | 114.00470 | 32174 ft | 387 kts | 262° |
| 2026-05-04 10:14 | 28.25582 | 113.94420 | 32169 ft | 387 kts | 262° |
| 2026-05-04 10:16 | 28.22707 | 113.70216 | 32127 ft | 387 kts | 262° |
| 2026-05-04 10:16 | 28.21971 | 113.64164 | 32135 ft | 388 kts | 262° |
| 2026-05-04 10:17 | 28.21234 | 113.58112 | 32129 ft | 388 kts | 262° |
| 2026-05-04 10:19 | 28.18275 | 113.33865 | 32129 ft | 388 kts | 262° |
| 2026-05-04 10:19 | 28.17525 | 113.27806 | 32127 ft | 388 kts | 262° |
| 2026-05-04 10:20 | 28.16778 | 113.21785 | 32127 ft | 388 kts | 262° |
| 2026-05-04 10:20 | 28.16029 | 113.15721 | 32127 ft | 389 kts | 262° |
| 2026-05-04 10:21 | 28.15280 | 113.09659 | 32136 ft | 388 kts | 262° |
| 2026-05-04 10:21 | 28.14522 | 113.03598 | 32136 ft | 389 kts | 262° |
| 2026-05-04 10:22 | 28.13562 | 112.94487 | 32134 ft | 389 kts | 270° |
| 2026-05-04 10:23 | 28.13927 | 112.88367 | 32136 ft | 390 kts | 272° |
| 2026-05-04 10:25 | 28.15336 | 112.63853 | 32115 ft | 390 kts | 272° |
| 2026-05-04 10:25 | 28.15678 | 112.57722 | 32119 ft | 390 kts | 272° |
| 2026-05-04 10:26 | 28.16025 | 112.51591 | 32123 ft | 390 kts | 272° |
| 2026-05-04 10:26 | 28.16371 | 112.45459 | 32126 ft | 390 kts | 272° |
| 2026-05-04 10:27 | 28.16702 | 112.39320 | 32121 ft | 390 kts | 272° |
| 2026-05-04 10:27 | 28.17039 | 112.33182 | 32131 ft | 390 kts | 272° |
| 2026-05-04 10:28 | 28.17375 | 112.27040 | 32132 ft | 390 kts | 272° |
| 2026-05-04 10:28 | 28.17306 | 112.20916 | 32125 ft | 390 kts | 260° |
| 2026-05-04 10:29 | 28.15815 | 112.15001 | 32133 ft | 391 kts | 255° |
| 2026-05-04 10:29 | 28.14254 | 112.09098 | 32142 ft | 391 kts | 256° |
| 2026-05-04 10:30 | 28.12705 | 112.03187 | 32136 ft | 391 kts | 256° |
| 2026-05-04 10:30 | 28.11157 | 111.97278 | 32133 ft | 392 kts | 256° |
| 2026-05-04 10:31 | 28.09600 | 111.91363 | 32131 ft | 392 kts | 256° |
| 2026-05-04 10:32 | 28.04101 | 111.70676 | 32082 ft | 392 kts | 256° |
| 2026-05-04 10:33 | 28.02517 | 111.64730 | 32109 ft | 396 kts | 256° |
| 2026-05-04 10:33 | 28.00925 | 111.58763 | 32119 ft | 396 kts | 256° |
| 2026-05-04 10:34 | 27.99331 | 111.52795 | 32118 ft | 396 kts | 256° |
| 2026-05-04 10:34 | 27.97840 | 111.46797 | 32120 ft | 396 kts | 257° |
| 2026-05-04 10:35 | 27.96438 | 111.40782 | 32131 ft | 395 kts | 257° |
| 2026-05-04 10:35 | 27.95025 | 111.34771 | 32132 ft | 396 kts | 257° |
| 2026-05-04 10:36 | 27.93596 | 111.28807 | 32129 ft | 396 kts | 257° |
| 2026-05-04 10:36 | 27.92146 | 111.22808 | 32130 ft | 396 kts | 257° |
| 2026-05-04 10:37 | 27.90681 | 111.16773 | 32125 ft | 395 kts | 257° |
| 2026-05-04 10:37 | 27.89477 | 111.11791 | 32128 ft | 395 kts | 257° |
| 2026-05-04 10:39 | 27.84360 | 110.90704 | 32118 ft | 400 kts | 257° |
| 2026-05-04 10:40 | 27.82878 | 110.84653 | 32127 ft | 400 kts | 257° |
| 2026-05-04 10:40 | 27.81399 | 110.78597 | 32132 ft | 400 kts | 257° |
| 2026-05-04 10:41 | 27.79912 | 110.72540 | 32132 ft | 401 kts | 257° |
| 2026-05-04 10:41 | 27.78424 | 110.66481 | 32131 ft | 400 kts | 257° |
| 2026-05-04 10:42 | 27.76949 | 110.60462 | 32126 ft | 400 kts | 257° |
| 2026-05-04 10:42 | 27.75457 | 110.54408 | 32127 ft | 401 kts | 257° |
| 2026-05-04 10:43 | 27.73957 | 110.48346 | 32127 ft | 401 kts | 257° |
| 2026-05-04 10:45 | 27.67926 | 110.24051 | 32113 ft | 404 kts | 257° |
| 2026-05-04 10:45 | 27.66406 | 110.17938 | 32115 ft | 405 kts | 257° |
| 2026-05-04 10:46 | 27.64878 | 110.11830 | 32117 ft | 405 kts | 257° |
| 2026-05-04 10:46 | 27.63345 | 110.05718 | 32117 ft | 405 kts | 257° |
| 2026-05-04 10:47 | 27.61811 | 109.99608 | 32116 ft | 405 kts | 257° |
| 2026-05-04 10:47 | 27.60271 | 109.93496 | 32117 ft | 405 kts | 257° |
| 2026-05-04 10:49 | 27.54062 | 109.69055 | 32124 ft | 406 kts | 256° |
| 2026-05-04 10:50 | 27.52251 | 109.63019 | 32089 ft | 407 kts | 254° |
| 2026-05-04 10:52 | 27.44625 | 109.38908 | 32117 ft | 411 kts | 255° |
| 2026-05-04 10:52 | 27.42769 | 109.32821 | 32121 ft | 411 kts | 255° |
| 2026-05-04 10:54 | 27.35226 | 109.08462 | 32153 ft | 412 kts | 255° |
| 2026-05-04 10:56 | 27.27597 | 108.83997 | 32154 ft | 416 kts | 255° |
| 2026-05-04 10:57 | 27.25674 | 108.77863 | 32154 ft | 416 kts | 255° |
| 2026-05-04 10:57 | 27.23750 | 108.71727 | 32156 ft | 416 kts | 255° |
| 2026-05-04 10:58 | 27.21820 | 108.65591 | 32161 ft | 417 kts | 255° |
| 2026-05-04 10:58 | 27.19890 | 108.59449 | 32165 ft | 417 kts | 255° |
| 2026-05-04 10:59 | 27.17955 | 108.53305 | 32172 ft | 417 kts | 255° |
| 2026-05-04 10:59 | 27.16008 | 108.47166 | 32178 ft | 417 kts | 255° |
| 2026-05-04 11:00 | 27.14069 | 108.41027 | 32180 ft | 417 kts | 255° |
| 2026-05-04 11:02 | 27.06278 | 108.16516 | 32177 ft | 418 kts | 255° |
| 2026-05-04 11:05 | 26.91477 | 107.70464 | 32168 ft | 419 kts | 255° |
| 2026-05-04 11:06 | 26.89488 | 107.64315 | 32178 ft | 420 kts | 255° |
| 2026-05-04 11:06 | 26.87491 | 107.58162 | 32192 ft | 421 kts | 255° |
| 2026-05-04 11:10 | 26.73432 | 107.15016 | 32214 ft | 423 kts | 255° |
| 2026-05-04 11:12 | 26.66208 | 106.90091 | 32233 ft | 417 kts | 268° |
| 2026-05-04 11:12 | 26.65710 | 106.83628 | 32236 ft | 417 kts | 268° |
| 2026-05-04 11:13 | 26.65215 | 106.77171 | 32235 ft | 417 kts | 268° |
| 2026-05-04 11:13 | 26.64721 | 106.70767 | 32230 ft | 417 kts | 268° |
| 2026-05-04 11:16 | 26.62175 | 106.38442 | 32202 ft | 418 kts | 267° |
| 2026-05-04 11:16 | 26.61650 | 106.31970 | 32188 ft | 418 kts | 268° |
| 2026-05-04 11:17 | 26.61124 | 106.25503 | 32194 ft | 418 kts | 268° |
| 2026-05-04 11:19 | 26.59011 | 105.99612 | 32183 ft | 418 kts | 268° |
| 2026-05-04 11:19 | 26.58473 | 105.93138 | 32170 ft | 419 kts | 267° |
| 2026-05-04 11:20 | 26.57933 | 105.86656 | 32170 ft | 419 kts | 268° |
| 2026-05-04 11:20 | 26.57389 | 105.80172 | 32146 ft | 419 kts | 267° |
| 2026-05-04 11:22 | 26.55169 | 105.54155 | 32152 ft | 422 kts | 267° |
| 2026-05-04 11:23 | 26.54606 | 105.47631 | 32150 ft | 422 kts | 267° |
| 2026-05-04 11:25 | 26.52718 | 105.25896 | 32139 ft | 423 kts | 267° |
| 2026-05-04 11:25 | 26.52038 | 105.18260 | 32138 ft | 423 kts | 267° |
| 2026-05-04 11:27 | 26.49475 | 104.89902 | 31665 ft | 426 kts | 266° |
| 2026-05-04 11:28 | 26.49173 | 104.86610 | 31310 ft | 427 kts | 266° |
| 2026-05-04 11:28 | 26.48871 | 104.83307 | 30962 ft | 429 kts | 266° |
| 2026-05-04 11:28 | 26.48571 | 104.79990 | 30614 ft | 430 kts | 266° |
| 2026-05-04 11:28 | 26.48089 | 104.76690 | 30275 ft | 433 kts | 258° |
| 2026-05-04 11:29 | 26.47051 | 104.73518 | 29883 ft | 439 kts | 248° |
| 2026-05-04 11:29 | 26.45490 | 104.70565 | 29483 ft | 445 kts | 241° |
| 2026-05-04 11:29 | 26.43787 | 104.67674 | 29088 ft | 447 kts | 241° |
| 2026-05-04 11:29 | 26.42075 | 104.64774 | 28694 ft | 449 kts | 241° |
| 2026-05-04 11:31 | 26.30001 | 104.44425 | 26114 ft | 452 kts | 240° |
| 2026-05-04 11:33 | 26.17746 | 104.23794 | 23753 ft | 456 kts | 240° |
| 2026-05-04 11:33 | 26.15999 | 104.20869 | 23430 ft | 454 kts | 239° |
| 2026-05-04 11:33 | 26.14251 | 104.17942 | 23071 ft | 452 kts | 240° |
| 2026-05-04 11:34 | 26.12513 | 104.15031 | 22730 ft | 451 kts | 240° |
| 2026-05-04 11:34 | 26.10781 | 104.12134 | 22409 ft | 449 kts | 240° |
| 2026-05-04 11:34 | 26.09055 | 104.09249 | 22085 ft | 447 kts | 240° |
| 2026-05-04 11:34 | 26.07336 | 104.06378 | 21767 ft | 445 kts | 240° |
| 2026-05-04 11:35 | 26.05626 | 104.03521 | 21453 ft | 443 kts | 240° |
| 2026-05-04 11:35 | 26.03925 | 104.00675 | 21142 ft | 441 kts | 240° |
| 2026-05-04 11:35 | 26.02232 | 103.97843 | 20828 ft | 439 kts | 239° |
| 2026-05-04 11:35 | 26.00544 | 103.95023 | 20514 ft | 437 kts | 239° |
| 2026-05-04 11:36 | 25.98750 | 103.92294 | 20218 ft | 439 kts | 232° |
| 2026-05-04 11:36 | 25.96704 | 103.89779 | 19929 ft | 438 kts | 231° |
| 2026-05-04 11:36 | 25.94665 | 103.87275 | 19644 ft | 436 kts | 231° |
| 2026-05-04 11:36 | 25.92634 | 103.84778 | 19370 ft | 436 kts | 231° |
| 2026-05-04 11:37 | 25.90600 | 103.82276 | 19099 ft | 436 kts | 231° |
| 2026-05-04 11:37 | 25.88570 | 103.79784 | 18819 ft | 434 kts | 231° |
| 2026-05-04 11:37 | 25.86551 | 103.77310 | 18573 ft | 431 kts | 231° |
| 2026-05-04 11:37 | 25.84541 | 103.74849 | 18269 ft | 429 kts | 231° |
| 2026-05-04 11:38 | 25.82540 | 103.72394 | 17959 ft | 428 kts | 231° |
| 2026-05-04 11:38 | 25.80552 | 103.69950 | 17651 ft | 427 kts | 231° |
| 2026-05-04 11:38 | 25.78563 | 103.67508 | 17347 ft | 425 kts | 231° |
| 2026-05-04 11:38 | 25.76582 | 103.65083 | 17046 ft | 424 kts | 231° |
| 2026-05-04 11:39 | 25.74602 | 103.62665 | 16766 ft | 423 kts | 231° |
| 2026-05-04 11:39 | 25.72633 | 103.60260 | 16463 ft | 415 kts | 231° |
| 2026-05-04 11:40 | 25.62034 | 103.47333 | 15029 ft | 347 kts | 231° |
| 2026-05-04 11:41 | 25.60432 | 103.45378 | 14798 ft | 338 kts | 231° |
| 2026-05-04 11:41 | 25.58865 | 103.43471 | 14566 ft | 330 kts | 230° |
| 2026-05-04 11:41 | 25.57336 | 103.41610 | 14338 ft | 324 kts | 231° |
| 2026-05-04 11:41 | 25.55837 | 103.39781 | 14113 ft | 318 kts | 231° |
| 2026-05-04 11:42 | 25.54364 | 103.37982 | 13868 ft | 312 kts | 231° |
| 2026-05-04 11:42 | 25.52942 | 103.36249 | 13611 ft | 306 kts | 230° |
| 2026-05-04 11:42 | 25.51519 | 103.34517 | 13377 ft | 302 kts | 231° |
| 2026-05-04 11:42 | 25.50111 | 103.32803 | 13126 ft | 300 kts | 231° |
| 2026-05-04 11:43 | 25.48710 | 103.31099 | 12866 ft | 299 kts | 230° |
| 2026-05-04 11:43 | 25.47315 | 103.29404 | 12623 ft | 297 kts | 230° |
| 2026-05-04 11:43 | 25.45926 | 103.27717 | 12374 ft | 296 kts | 230° |
| 2026-05-04 11:43 | 25.44543 | 103.26039 | 12133 ft | 295 kts | 230° |
| 2026-05-04 11:44 | 25.43163 | 103.24366 | 11886 ft | 294 kts | 230° |
| 2026-05-04 11:44 | 25.41791 | 103.22700 | 11643 ft | 293 kts | 230° |
| 2026-05-04 11:44 | 25.40432 | 103.21054 | 11401 ft | 286 kts | 230° |
| 2026-05-04 11:44 | 25.39090 | 103.19451 | 11184 ft | 282 kts | 227° |
| 2026-05-04 11:45 | 25.37594 | 103.18059 | 10948 ft | 279 kts | 220° |
| 2026-05-04 11:45 | 25.36088 | 103.16747 | 10709 ft | 272 kts | 221° |
| 2026-05-04 11:45 | 25.34620 | 103.15462 | 10481 ft | 267 kts | 220° |
| 2026-05-04 11:45 | 25.33173 | 103.14195 | 10243 ft | 263 kts | 220° |
| 2026-05-04 11:46 | 25.31749 | 103.12949 | 9991 ft | 259 kts | 221° |
| 2026-05-04 11:46 | 25.30351 | 103.11727 | 9828 ft | 252 kts | 220° |
| 2026-05-04 11:46 | 25.29007 | 103.10553 | 9785 ft | 240 kts | 220° |
| 2026-05-04 11:46 | 25.27726 | 103.09433 | 9792 ft | 232 kts | 221° |
| 2026-05-04 11:47 | 25.26463 | 103.08329 | 9798 ft | 231 kts | 221° |
| 2026-05-04 11:47 | 25.25204 | 103.07228 | 9801 ft | 231 kts | 221° |
| 2026-05-04 11:47 | 25.23956 | 103.06139 | 9803 ft | 224 kts | 221° |
| 2026-05-04 11:47 | 25.22759 | 103.05095 | 9674 ft | 215 kts | 221° |
| 2026-05-04 11:48 | 25.21600 | 103.04083 | 9410 ft | 210 kts | 221° |
| 2026-05-04 11:48 | 25.20469 | 103.03096 | 9133 ft | 205 kts | 220° |
| 2026-05-04 11:48 | 25.19364 | 103.02131 | 8869 ft | 201 kts | 220° |
| 2026-05-04 11:48 | 25.18283 | 103.01190 | 8605 ft | 193 kts | 221° |
| 2026-05-04 11:49 | 25.17273 | 103.00310 | 8387 ft | 176 kts | 221° |
| 2026-05-04 11:49 | 25.16351 | 102.99506 | 8145 ft | 163 kts | 221° |
| 2026-05-04 11:49 | 25.15484 | 102.98750 | 7912 ft | 156 kts | 221° |
| 2026-05-04 11:49 | 25.14643 | 102.98017 | 7691 ft | 152 kts | 220° |
| 2026-05-04 11:50 | 25.13825 | 102.97303 | 7468 ft | 148 kts | 218° |
| 2026-05-04 11:50 | 25.13017 | 102.96591 | 7249 ft | 150 kts | 219° |
| 2026-05-04 11:50 | 25.12182 | 102.95881 | 7038 ft | 153 kts | 218° |
| 2026-05-04 11:50 | 25.11360 | 102.95153 | 6897 ft | 145 kts | 219° |
| 2026-05-04 11:51 | 25.10650 | 102.94533 | 6891 ft | 112 kts | 218° |
| 2026-05-04 11:51 | 25.10191 | 102.94132 | 6894 ft | 40 kts | 218° |
| 2026-05-04 11:51 | 25.10040 | 102.93943 | 6893 ft | 21 kts | 248° |
| 2026-05-04 11:51 | 25.09995 | 102.93835 | 6893 ft | 13 kts | 245° |
| 2026-05-04 11:52 | 25.09959 | 102.93743 | 6894 ft | 9 kts | 262° |
| 2026-05-04 11:52 | 25.09990 | 102.93711 | 6894 ft | 6 kts | 28° |
| 2026-05-04 11:52 | 25.10017 | 102.93737 | 6894 ft | 4 kts | 44° |
| 2026-05-04 11:52 | 25.10042 | 102.93763 | 6894 ft | 10 kts | 41° |
| 2026-05-04 11:53 | 25.10149 | 102.93857 | 6893 ft | 27 kts | 38° |
| 2026-05-04 11:53 | 25.10299 | 102.93988 | 6894 ft | 28 kts | 38° |
| 2026-05-04 11:53 | 25.10453 | 102.94121 | 6893 ft | 29 kts | 38° |
| 2026-05-04 11:53 | 25.10573 | 102.94209 | 6893 ft | 16 kts | 5° |
| 2026-05-04 11:55 | 25.11006 | 102.93786 | 6895 ft | 0 kts | 38° |